Time;durP1;ratioP1;P1;durP2;ratioP2;P2;SDS_P1;SDS_P2;PMS_P1;PMS_P2;Temp;Humidity;BMP_temperature;BMP_pressure;BME280_temperature;BME280_humidity;BME280_pressure;Samples;Min_cycle;Max_cycle;Signal;HPM_P1;HPM_P2
2021/01/16 00:00:16;;;;;;;16.08;9.27;;;;;;;;;;5072713;28;20162;-46
2021/01/16 00:02:42;;;;;;;16.92;10.48;;;;;;;;;;5068107;28;20206;-46
2021/01/16 00:05:08;;;;;;;20.87;11.23;;;;;;;;;;5072723;28;20292;-46
2021/01/16 00:07:34;;;;;;;17.30;10.15;;;;;;;;;;5072339;28;20401;-46
2021/01/16 00:10:00;;;;;;;19.60;10.40;;;;;;;;;;5072806;28;20181;-46
2021/01/16 00:12:26;;;;;;;19.37;10.77;;;;;;;;;;5072313;28;20559;-47
2021/01/16 00:14:52;;;;;;;14.97;9.23;;;;;;;;;;5067807;28;20485;-49
2021/01/16 00:17:18;;;;;;;16.90;9.97;;;;;;;;;;5072160;28;20401;-49
2021/01/16 00:19:44;;;;;;;16.27;10.20;;;;;;;;;;5072554;28;20479;-44
2021/01/16 00:22:10;;;;;;;17.83;10.60;;;;;;;;;;5072550;28;21072;-45
2021/01/16 00:24:35;;;;;;;16.43;9.60;;;;;;;;;;5072678;28;20392;-45
2021/01/16 00:27:01;;;;;;;18.50;10.37;;;;;;;;;;5072010;28;20400;-45
2021/01/16 00:29:27;;;;;;;20.27;10.10;;;;;;;;;;5072296;28;20400;-45
2021/01/16 00:31:53;;;;;;;15.00;9.40;;;;;;;;;;5067530;28;20531;-45
2021/01/16 00:34:19;;;;;;;18.00;11.13;;;;;;;;;;5070712;28;20475;-44
2021/01/16 00:36:45;;;;;;;25.08;11.23;;;;;;;;;;5071790;28;20397;-45
2021/01/16 00:39:11;;;;;;;13.27;8.40;;;;;;;;;;5071921;28;20177;-45
2021/01/16 00:41:37;;;;;;;15.07;9.80;;;;;;;;;;5071886;28;20467;-45
2021/01/16 00:44:03;;;;;;;16.60;8.60;;;;;;;;;;5071689;28;20408;-44
2021/01/16 00:46:29;;;;;;;16.40;9.73;;;;;;;;;;5071592;28;20404;-45
2021/01/16 00:48:55;;;;;;;18.30;10.40;;;;;;;;;;5071647;28;20177;-46
2021/01/16 00:51:21;;;;;;;13.83;8.87;;;;;;;;;;5071716;28;20408;-48
2021/01/16 00:53:47;;;;;;;14.57;9.07;;;;;;;;;;5071423;28;20541;-48
2021/01/16 00:56:13;;;;;;;17.33;10.50;;;;;;;;;;5071411;28;20403;-46
2021/01/16 00:58:39;;;;;;;15.93;10.63;;;;;;;;;;5071382;28;20804;-46
2021/01/16 01:01:05;;;;;;;18.40;9.17;;;;;;;;;;5071597;28;20419;-47
2021/01/16 01:03:31;;;;;;;14.87;9.03;;;;;;;;;;5065937;28;20825;-48
2021/01/16 01:05:57;;;;;;;17.38;10.02;;;;;;;;;;5070120;28;20515;-48
2021/01/16 01:08:27;;;;;;;16.70;9.70;;;;;;;;;;5071505;28;20190;-48
2021/01/16 01:10:53;;;;;;;15.30;10.55;;;;;;;;;;5071185;28;20219;-48
2021/01/16 01:13:19;;;;;;;15.43;9.88;;;;;;;;;;5071198;28;20220;-48
2021/01/16 01:15:45;;;;;;;16.43;9.43;;;;;;;;;;5070922;28;20653;-45
2021/01/16 01:18:11;;;;;;;15.80;10.23;;;;;;;;;;5071168;28;20389;-45
2021/01/16 01:20:37;;;;;;;20.13;9.80;;;;;;;;;;5071079;28;20393;-45
2021/01/16 01:23:03;;;;;;;16.70;10.37;;;;;;;;;;5071066;28;20836;-46
2021/01/16 01:25:29;;;;;;;19.47;10.07;;;;;;;;;;5070787;28;20408;-46
2021/01/16 01:27:56;;;;;;;21.27;10.47;;;;;;;;;;5071029;28;20451;-47
2021/01/16 01:30:22;;;;;;;16.85;9.55;;;;;;;;;;5070954;28;20404;-47
2021/01/16 01:32:49;;;;;;;16.85;10.48;;;;;;;;;;5066158;28;20198;-45
2021/01/16 01:35:15;;;;;;;21.55;10.48;;;;;;;;;;5070774;28;20704;-47
2021/01/16 01:37:46;;;;;;;22.15;11.35;;;;;;;;;;5070949;28;20534;-45
2021/01/16 01:40:13;;;;;;;16.48;9.95;;;;;;;;;;5070832;28;20158;-46
2021/01/16 01:42:39;;;;;;;15.30;10.05;;;;;;;;;;5070861;28;20209;-45
2021/01/16 01:45:06;;;;;;;16.60;10.45;;;;;;;;;;5070958;28;20178;-44
2021/01/16 01:47:32;;;;;;;15.00;9.35;;;;;;;;;;5070364;28;20249;-46
2021/01/16 01:49:59;;;;;;;15.32;9.70;;;;;;;;;;5070402;28;20626;-45
2021/01/16 01:52:26;;;;;;;15.18;8.80;;;;;;;;;;5070496;28;20198;-45
2021/01/16 01:54:52;;;;;;;17.23;10.52;;;;;;;;;;5070795;28;20162;-46
2021/01/16 01:57:20;;;;;;;18.33;9.98;;;;;;;;;;5070340;28;20247;-46
2021/01/16 01:59:46;;;;;;;20.60;10.60;;;;;;;;;;5070712;28;20241;-47
2021/01/16 02:02:13;;;;;;;18.67;9.15;;;;;;;;;;5067983;28;20194;-46
2021/01/16 02:04:40;;;;;;;19.88;10.70;;;;;;;;;;5070011;28;20672;-45
2021/01/16 02:07:22;;;;;;;17.58;10.68;;;;;;;;;;5070254;28;20174;-48
2021/01/16 02:09:49;;;;;;;14.80;9.20;;;;;;;;;;5070717;28;20158;-48
2021/01/16 02:12:15;;;;;;;16.17;9.55;;;;;;;;;;5070383;28;20212;-48
2021/01/16 02:14:43;;;;;;;17.77;10.57;;;;;;;;;;5070841;28;20595;-45
2021/01/16 02:17:10;;;;;;;18.55;10.73;;;;;;;;;;5070469;28;20168;-45
2021/01/16 02:19:44;;;;;;;15.90;10.80;;;;;;;;;;5071056;28;20173;-45
2021/01/16 02:22:10;;;;;;;19.95;11.38;;;;;;;;;;5070833;28;20193;-45
2021/01/16 02:24:39;;;;;;;19.00;11.25;;;;;;;;;;5070672;28;20174;-45
2021/01/16 02:27:24;;;;;;;17.20;10.10;;;;;;;;;;5070395;28;20169;-46
2021/01/16 02:29:50;;;;;;;19.40;12.35;;;;;;;;;;5070535;28;20208;-45
2021/01/16 02:32:17;;;;;;;21.55;11.80;;;;;;;;;;5065742;28;20587;-45
2021/01/16 02:34:46;;;;;;;17.67;10.63;;;;;;;;;;5070332;28;20200;-45
2021/01/16 02:37:27;;;;;;;17.05;10.73;;;;;;;;;;5070270;28;20194;-44
2021/01/16 02:40:13;;;;;;;18.27;12.30;;;;;;;;;;5070361;28;20200;-48
2021/01/16 02:42:45;;;;;;;23.27;13.80;;;;;;;;;;5070461;28;20217;-45
2021/01/16 02:45:12;;;;;;;24.92;12.82;;;;;;;;;;5070286;28;20657;-48
2021/01/16 02:47:39;;;;;;;19.30;13.07;;;;;;;;;;5070246;28;20220;-45
2021/01/16 02:50:09;;;;;;;20.85;12.13;;;;;;;;;;5070247;28;20700;-45
2021/01/16 02:52:40;;;;;;;21.77;14.57;;;;;;;;;;5070103;28;20245;-45
2021/01/16 02:55:08;;;;;;;26.65;14.23;;;;;;;;;;5070211;28;20174;-46
2021/01/16 02:57:34;;;;;;;21.55;13.43;;;;;;;;;;5069983;28;20163;-46
2021/01/16 03:00:00;;;;;;;22.03;12.37;;;;;;;;;;5070106;28;20661;-48
2021/01/16 03:02:26;;;;;;;26.90;13.37;;;;;;;;;;5071896;28;20436;-48
2021/01/16 03:04:51;;;;;;;25.30;14.23;;;;;;;;;;5073706;28;20795;-44
2021/01/16 03:07:17;;;;;;;25.73;14.27;;;;;;;;;;5073552;28;20431;-45
2021/01/16 03:09:43;;;;;;;22.07;12.80;;;;;;;;;;5073610;28;20404;-45
2021/01/16 03:12:10;;;;;;;30.48;13.38;;;;;;;;;;5073559;28;20420;-45
2021/01/16 03:14:37;;;;;;;24.65;13.38;;;;;;;;;;5073607;28;20285;-48
2021/01/16 03:17:06;;;;;;;21.83;12.50;;;;;;;;;;5073199;28;20159;-47
2021/01/16 03:19:33;;;;;;;21.00;12.00;;;;;;;;;;5073630;28;20193;-44
2021/01/16 03:21:59;;;;;;;19.90;12.38;;;;;;;;;;5073346;28;20185;-47
2021/01/16 03:24:26;;;;;;;23.95;13.40;;;;;;;;;;5073386;28;20174;-46
2021/01/16 03:26:52;;;;;;;20.10;13.00;;;;;;;;;;5073052;28;20253;-45
2021/01/16 03:29:18;;;;;;;23.30;11.18;;;;;;;;;;5073426;28;20174;-45
2021/01/16 03:31:44;;;;;;;20.27;13.03;;;;;;;;;;5068902;28;20222;-48
2021/01/16 03:34:09;;;;;;;22.58;12.88;;;;;;;;;;5073246;28;20483;-47
2021/01/16 03:36:35;;;;;;;20.30;11.67;;;;;;;;;;5072861;28;20221;-44
2021/01/16 03:39:01;;;;;;;17.83;11.03;;;;;;;;;;5073199;28;20404;-45
2021/01/16 03:41:27;;;;;;;17.73;11.73;;;;;;;;;;5072948;28;20388;-45
2021/01/16 03:43:53;;;;;;;22.00;12.53;;;;;;;;;;5073163;28;20876;-45
2021/01/16 03:46:19;;;;;;;22.00;11.97;;;;;;;;;;5072715;28;20483;-48
2021/01/16 03:48:45;;;;;;;17.13;10.50;;;;;;;;;;5073023;28;20446;-44
2021/01/16 03:51:11;;;;;;;23.23;13.50;;;;;;;;;;5073012;28;20411;-45
2021/01/16 03:53:37;;;;;;;20.87;12.33;;;;;;;;;;5072536;28;20503;-46
2021/01/16 03:56:03;;;;;;;18.73;11.43;;;;;;;;;;5072652;28;20396;-47
2021/01/16 03:58:29;;;;;;;20.15;11.57;;;;;;;;;;5072700;28;20404;-48
2021/01/16 04:00:55;;;;;;;24.07;12.10;;;;;;;;;;5070935;28;20529;-48
2021/01/16 04:03:21;;;;;;;17.00;11.47;;;;;;;;;;5072545;28;20443;-48
2021/01/16 04:05:47;;;;;;;18.40;11.90;;;;;;;;;;5072461;28;20406;-47
2021/01/16 04:08:13;;;;;;;23.25;12.50;;;;;;;;;;5072505;28;21124;-47
2021/01/16 04:10:39;;;;;;;22.37;13.10;;;;;;;;;;5072714;28;20307;-48
2021/01/16 04:13:05;;;;;;;22.10;12.07;;;;;;;;;;5071995;28;20447;-45
2021/01/16 04:15:31;;;;;;;19.00;11.37;;;;;;;;;;5072453;28;20420;-45
2021/01/16 04:17:57;;;;;;;20.70;12.77;;;;;;;;;;5072702;28;20399;-45
2021/01/16 04:20:23;;;;;;;16.60;11.00;;;;;;;;;;5072829;28;20416;-44
2021/01/16 04:22:51;;;;;;;19.20;12.97;;;;;;;;;;5072553;28;20507;-45
2021/01/16 04:25:17;;;;;;;17.42;11.73;;;;;;;;;;5072257;28;20396;-45
2021/01/16 04:27:43;;;;;;;19.15;12.15;;;;;;;;;;5072483;28;20249;-44
2021/01/16 04:30:10;;;;;;;18.93;11.57;;;;;;;;;;5072215;28;20198;-45
2021/01/16 04:32:36;;;;;;;19.38;12.90;;;;;;;;;;5067795;28;20453;-44
2021/01/16 04:35:02;;;;;;;19.20;11.70;;;;;;;;;;5072096;28;20184;-44
2021/01/16 04:37:27;;;;;;;19.07;11.37;;;;;;;;;;5071876;28;20392;-45
2021/01/16 04:39:53;;;;;;;18.73;11.83;;;;;;;;;;5071988;28;20811;-44
2021/01/16 04:42:19;;;;;;;18.67;11.38;;;;;;;;;;5071955;28;20413;-45
2021/01/16 04:44:48;;;;;;;17.50;11.07;;;;;;;;;;5071826;28;20163;-45
2021/01/16 04:47:26;;;;;;;16.63;10.88;;;;;;;;;;5071672;28;20529;-47
2021/01/16 04:49:52;;;;;;;21.88;11.48;;;;;;;;;;5071725;28;20252;-45
2021/01/16 04:52:25;;;;;;;18.13;10.98;;;;;;;;;;5087423;22;21055;-55
2021/01/16 04:54:52;;;;;;;20.52;12.23;;;;;;;;;;5091703;28;20188;-54
2021/01/16 04:57:19;;;;;;;24.35;12.27;;;;;;;;;;5091728;28;20169;-55
2021/01/16 04:59:45;;;;;;;23.90;11.02;;;;;;;;;;5091848;28;20203;-55
2021/01/16 05:02:11;;;;;;;19.05;12.05;;;;;;;;;;5093490;28;20189;-55
2021/01/16 05:04:40;;;;;;;19.63;10.80;;;;;;;;;;5112088;28;20666;-55
2021/01/16 05:07:09;;;;;;;15.98;10.32;;;;;;;;;;5111726;28;20410;-55
2021/01/16 05:09:37;;;;;;;22.58;11.95;;;;;;;;;;5112096;28;20164;-55
2021/01/16 05:12:15;;;;;;;19.55;11.63;;;;;;;;;;5110819;28;20169;-55
2021/01/16 05:15:02;;;;;;;19.52;12.05;;;;;;;;;;5111824;28;20200;-55
2021/01/16 05:17:28;;;;;;;20.90;11.27;;;;;;;;;;5111541;28;20164;-54
2021/01/16 05:19:55;;;;;;;19.27;11.00;;;;;;;;;;5111879;28;20171;-54
2021/01/16 05:22:21;;;;;;;16.45;10.95;;;;;;;;;;5111546;28;20188;-55
2021/01/16 05:24:47;;;;;;;14.10;10.23;;;;;;;;;;5111133;28;20156;-55
2021/01/16 05:27:19;;;;;;;16.53;10.33;;;;;;;;;;5111325;28;20646;-55
2021/01/16 05:29:45;;;;;;;15.68;10.23;;;;;;;;;;5111697;28;20406;-55
2021/01/16 05:32:13;;;;;;;16.90;9.17;;;;;;;;;;5110331;28;20528;-55
2021/01/16 05:34:39;;;;;;;17.27;10.45;;;;;;;;;;5111144;28;20490;-55
2021/01/16 05:37:05;;;;;;;17.67;11.10;;;;;;;;;;5111179;28;20197;-55
2021/01/16 05:39:32;;;;;;;18.77;10.75;;;;;;;;;;5111590;28;20403;-55
2021/01/16 05:42:01;;;;;;;19.98;11.43;;;;;;;;;;5111182;28;20164;-55
2021/01/16 05:44:27;;;;;;;19.23;10.30;;;;;;;;;;5111503;28;20165;-55
2021/01/16 05:46:53;;;;;;;17.52;9.88;;;;;;;;;;5111181;28;20172;-55
2021/01/16 05:49:21;;;;;;;24.92;10.98;;;;;;;;;;5111336;28;20272;-55
2021/01/16 05:51:48;;;;;;;20.25;11.35;;;;;;;;;;5111491;28;20250;-55
2021/01/16 05:54:14;;;;;;;16.67;10.23;;;;;;;;;;5111013;28;20211;-55
2021/01/16 05:56:40;;;;;;;17.83;9.90;;;;;;;;;;5111014;28;20255;-55
2021/01/16 05:59:11;;;;;;;16.50;10.68;;;;;;;;;;5111101;28;20209;-55
2021/01/16 06:01:37;;;;;;;14.82;10.15;;;;;;;;;;5110459;28;20172;-55
2021/01/16 06:04:04;;;;;;;22.35;10.10;;;;;;;;;;5111054;28;20725;-55
2021/01/16 06:06:33;;;;;;;16.33;9.73;;;;;;;;;;5111014;28;20172;-55
2021/01/16 06:08:59;;;;;;;19.58;10.98;;;;;;;;;;5111128;28;20662;-55
2021/01/16 06:11:25;;;;;;;24.47;11.00;;;;;;;;;;5111203;28;20169;-55
2021/01/16 06:13:53;;;;;;;15.97;9.50;;;;;;;;;;5111024;28;20465;-55
2021/01/16 06:16:22;;;;;;;17.08;9.27;;;;;;;;;;5110994;28;20410;-55
2021/01/16 06:18:51;;;;;;;18.50;10.35;;;;;;;;;;5111102;28;20168;-55
2021/01/16 06:21:23;;;;;;;16.27;9.70;;;;;;;;;;5111212;28;20161;-55
2021/01/16 06:23:52;;;;;;;16.45;9.88;;;;;;;;;;5110916;28;20563;-55
2021/01/16 06:26:20;;;;;;;17.17;11.15;;;;;;;;;;5110854;28;20172;-55
2021/01/16 06:28:59;;;;;;;25.60;10.25;;;;;;;;;;5111072;28;20185;-55
2021/01/16 06:31:29;;;;;;;15.45;9.15;;;;;;;;;;5110949;28;20169;-55
2021/01/16 06:33:59;;;;;;;15.00;9.05;;;;;;;;;;5109142;28;20200;-55
2021/01/16 06:36:27;;;;;;;11.98;8.30;;;;;;;;;;5114623;28;20177;-55
2021/01/16 06:39:00;;;;;;;17.98;9.05;;;;;;;;;;5114974;28;20730;-55
2021/01/16 06:41:30;;;;;;;17.02;8.75;;;;;;;;;;5114903;28;20173;-55
2021/01/16 06:43:56;;;;;;;11.70;8.32;;;;;;;;;;5114820;28;20187;-55
2021/01/16 06:46:37;;;;;;;12.48;8.38;;;;;;;;;;5114506;28;20188;-55
2021/01/16 06:49:04;;;;;;;12.93;8.20;;;;;;;;;;5114808;28;20180;-55
2021/01/16 06:51:30;;;;;;;15.27;9.07;;;;;;;;;;5114656;28;20654;-55
2021/01/16 06:54:03;;;;;;;11.68;7.07;;;;;;;;;;5114538;28;20324;-55
2021/01/16 06:56:31;;;;;;;12.25;8.10;;;;;;;;;;5114307;28;20192;-55
2021/01/16 06:58:59;;;;;;;10.60;8.25;;;;;;;;;;5114617;28;20654;-54
2021/01/16 07:01:32;;;;;;;15.57;8.18;;;;;;;;;;5113349;27;20168;-55
2021/01/16 07:04:01;;;;;;;16.40;9.20;;;;;;;;;;5114475;28;20185;-55
2021/01/16 07:06:27;;;;;;;16.33;9.13;;;;;;;;;;5114109;28;20258;-54
2021/01/16 07:08:53;;;;;;;13.80;7.70;;;;;;;;;;5114468;28;20164;-54
2021/01/16 07:11:19;;;;;;;12.80;7.90;;;;;;;;;;5114202;28;20169;-55
2021/01/16 07:13:46;;;;;;;12.70;8.10;;;;;;;;;;5114138;28;20196;-55
2021/01/16 07:16:12;;;;;;;12.82;8.32;;;;;;;;;;5113988;28;20252;-55
2021/01/16 07:18:40;;;;;;;11.88;8.70;;;;;;;;;;5114082;28;20265;-55
2021/01/16 07:21:07;;;;;;;11.23;7.35;;;;;;;;;;5114260;28;20173;-55
2021/01/16 07:23:34;;;;;;;16.65;8.55;;;;;;;;;;5113861;28;20263;-55
2021/01/16 07:26:00;;;;;;;12.55;8.93;;;;;;;;;;5113768;28;20179;-55
2021/01/16 07:28:27;;;;;;;16.73;8.15;;;;;;;;;;5113784;28;20168;-55
2021/01/16 07:30:53;;;;;;;14.20;8.30;;;;;;;;;;5113971;28;20168;-55
2021/01/16 07:33:19;;;;;;;14.53;8.57;;;;;;;;;;5112105;27;20261;-55
2021/01/16 07:35:48;;;;;;;13.50;8.27;;;;;;;;;;5112575;28;20398;-55
2021/01/16 07:38:14;;;;;;;17.27;9.50;;;;;;;;;;5113142;28;20168;-54
2021/01/16 07:40:42;;;;;;;15.75;9.02;;;;;;;;;;5112833;28;20165;-55
2021/01/16 07:43:16;;;;;;;13.65;9.52;;;;;;;;;;5112946;28;20181;-55
2021/01/16 07:45:49;;;;;;;19.80;8.85;;;;;;;;;;5112253;28;20554;-55
2021/01/16 07:48:20;;;;;;;21.08;9.82;;;;;;;;;;5112759;28;20176;-55
2021/01/16 07:50:49;;;;;;;10.13;7.20;;;;;;;;;;5112846;28;20176;-55
2021/01/16 07:53:24;;;;;;;17.23;8.35;;;;;;;;;;5112513;28;20236;-55
2021/01/16 07:56:00;;;;;;;12.77;8.88;;;;;;;;;;5112480;28;20161;-55
2021/01/16 07:58:30;;;;;;;17.20;8.32;;;;;;;;;;5112712;28;20561;-55
2021/01/16 08:01:05;;;;;;;16.23;8.88;;;;;;;;;;5111289;27;20687;-55
2021/01/16 08:03:50;;;;;;;14.40;8.35;;;;;;;;;;5112494;28;20195;-55
2021/01/16 08:06:28;;;;;;;11.20;7.47;;;;;;;;;;5112513;28;20269;-55
2021/01/16 08:08:57;;;;;;;14.52;9.35;;;;;;;;;;5112610;28;20262;-55
2021/01/16 08:11:33;;;;;;;12.00;8.00;;;;;;;;;;5112658;28;20175;-55
2021/01/16 08:14:06;;;;;;;14.75;8.70;;;;;;;;;;5112615;28;20298;-55
2021/01/16 08:16:33;;;;;;;14.07;8.77;;;;;;;;;;5112267;28;20169;-55
2021/01/16 08:19:24;;;;;;;14.45;9.10;;;;;;;;;;5106201;28;20266;-55
2021/01/16 08:21:52;;;;;;;12.82;8.13;;;;;;;;;;5096439;28;20195;-55
2021/01/16 08:24:19;;;;;;;15.80;8.50;;;;;;;;;;5091684;28;20177;-55
2021/01/16 08:26:55;;;;;;;13.18;8.57;;;;;;;;;;5091684;28;20222;-55
2021/01/16 08:29:22;;;;;;;13.32;8.13;;;;;;;;;;5091792;28;20169;-55
2021/01/16 08:31:48;;;;;;;15.93;8.20;;;;;;;;;;5102386;27;20176;-55
2021/01/16 08:34:46;;;;;;;16.05;7.70;;;;;;;;;;5111614;28;20207;-54
2021/01/16 08:37:13;;;;;;;13.07;7.65;;;;;;;;;;5111880;28;20229;-54
2021/01/16 08:39:43;;;;;;;13.85;9.00;;;;;;;;;;5111356;28;20189;-55
2021/01/16 08:42:09;;;;;;;12.80;8.10;;;;;;;;;;5112427;28;20161;-55
2021/01/16 08:44:49;;;;;;;12.73;8.25;;;;;;;;;;5112162;28;20168;-55
2021/01/16 08:47:16;;;;;;;15.63;10.20;;;;;;;;;;5111776;28;20206;-54
2021/01/16 08:49:42;;;;;;;14.75;9.40;;;;;;;;;;5112413;28;20252;-55
2021/01/16 08:52:08;;;;;;;13.33;7.87;;;;;;;;;;5112228;28;20729;-55
2021/01/16 08:54:34;;;;;;;17.53;8.90;;;;;;;;;;5112201;28;20512;-55
2021/01/16 08:57:00;;;;;;;14.03;8.83;;;;;;;;;;5112100;28;20434;-55
2021/01/16 08:59:26;;;;;;;14.50;7.87;;;;;;;;;;5112094;28;20946;-55
2021/01/16 09:01:54;;;;;;;14.60;8.57;;;;;;;;;;5110321;27;20431;-55
2021/01/16 09:04:20;;;;;;;12.57;8.93;;;;;;;;;;5112058;28;20883;-55
2021/01/16 09:06:46;;;;;;;13.57;8.10;;;;;;;;;;5111913;28;20175;-55
2021/01/16 09:09:14;;;;;;;12.63;7.43;;;;;;;;;;5111996;28;20434;-55
2021/01/16 09:11:40;;;;;;;12.18;8.43;;;;;;;;;;5112177;28;20172;-55
2021/01/16 09:14:06;;;;;;;11.25;7.47;;;;;;;;;;5111730;28;20719;-54
2021/01/16 09:16:37;;;;;;;14.98;9.65;;;;;;;;;;5111654;28;20171;-55
2021/01/16 09:19:04;;;;;;;17.77;10.60;;;;;;;;;;5111758;28;20248;-54
2021/01/16 09:21:30;;;;;;;15.10;8.60;;;;;;;;;;5111798;28;20605;-55
2021/01/16 09:23:56;;;;;;;19.17;9.15;;;;;;;;;;5111536;28;20193;-54
2021/01/16 09:26:24;;;;;;;13.00;9.00;;;;;;;;;;5111607;28;20196;-55
2021/01/16 09:28:50;;;;;;;11.38;8.60;;;;;;;;;;5111626;28;20232;-55
2021/01/16 09:31:26;;;;;;;13.13;9.25;;;;;;;;;;5110079;28;20165;-54
2021/01/16 09:33:54;;;;;;;12.80;9.23;;;;;;;;;;5111669;28;20214;-55
2021/01/16 09:36:35;;;;;;;18.60;9.85;;;;;;;;;;5111510;28;20676;-55
2021/01/16 09:39:02;;;;;;;24.52;11.43;;;;;;;;;;5111545;28;20184;-55
2021/01/16 09:41:34;;;;;;;15.15;9.52;;;;;;;;;;5111336;28;20579;-55
2021/01/16 09:44:04;;;;;;;16.65;9.90;;;;;;;;;;5111615;28;20196;-55
2021/01/16 09:46:37;;;;;;;17.33;9.60;;;;;;;;;;5111097;28;20202;-55
2021/01/16 09:49:06;;;;;;;14.55;9.10;;;;;;;;;;5111415;28;20192;-55
2021/01/16 09:51:34;;;;;;;16.67;9.43;;;;;;;;;;5111209;28;20796;-55
2021/01/16 09:54:10;;;;;;;14.65;9.23;;;;;;;;;;5111066;28;20208;-55
2021/01/16 09:56:40;;;;;;;15.50;9.95;;;;;;;;;;5092536;28;20164;-55
2021/01/16 09:59:06;;;;;;;18.05;10.60;;;;;;;;;;5109723;28;20200;-55
2021/01/16 10:01:34;;;;;;;17.15;11.43;;;;;;;;;;5109959;28;20256;-55
2021/01/16 10:04:03;;;;;;;16.95;10.52;;;;;;;;;;5111194;28;20264;-54
2021/01/16 10:06:35;;;;;;;15.20;10.50;;;;;;;;;;5110727;28;20248;-55
2021/01/16 10:09:01;;;;;;;18.90;11.25;;;;;;;;;;5111985;28;20192;-55
2021/01/16 10:11:54;;;;;;;16.70;9.52;;;;;;;;;;5117980;28;20174;-55
2021/01/16 10:14:21;;;;;;;15.55;9.52;;;;;;;;;;5114279;28;20212;-55
2021/01/16 10:16:47;;;;;;;16.65;9.73;;;;;;;;;;5117566;28;20161;-55
2021/01/16 10:19:14;;;;;;;15.02;10.35;;;;;;;;;;5117815;28;20165;-55
2021/01/16 10:22:06;;;;;;;14.40;9.75;;;;;;;;;;5118037;28;20176;-55
2021/01/16 10:24:44;;;;;;;16.35;10.30;;;;;;;;;;5114167;28;20192;-55
2021/01/16 10:27:10;;;;;;;15.10;10.23;;;;;;;;;;5117659;28;20249;-55
2021/01/16 10:29:36;;;;;;;18.65;10.68;;;;;;;;;;5117882;28;20569;-55
2021/01/16 10:32:20;;;;;;;17.37;10.80;;;;;;;;;;5116032;27;20172;-55
2021/01/16 10:34:46;;;;;;;13.52;9.07;;;;;;;;;;5117536;28;20461;-55
2021/01/16 10:37:12;;;;;;;15.93;9.68;;;;;;;;;;5117539;28;20164;-55
2021/01/16 10:39:39;;;;;;;19.33;10.77;;;;;;;;;;5117733;28;20639;-55
2021/01/16 10:42:12;;;;;;;18.95;9.98;;;;;;;;;;5117818;28;20524;-55
2021/01/16 10:44:39;;;;;;;18.35;10.98;;;;;;;;;;5117838;28;20161;-55
2021/01/16 10:47:25;;;;;;;18.95;10.68;;;;;;;;;;5117903;28;20177;-55
2021/01/16 10:49:51;;;;;;;14.95;10.27;;;;;;;;;;5117818;28;20200;-55
2021/01/16 10:52:29;;;;;;;14.95;9.18;;;;;;;;;;5117672;28;20688;-55
2021/01/16 10:54:58;;;;;;;14.40;9.38;;;;;;;;;;5123426;22;20246;-48
2021/01/16 10:57:27;;;;;;;17.23;10.98;;;;;;;;;;5096997;28;20644;-48
2021/01/16 10:59:58;;;;;;;16.30;10.48;;;;;;;;;;5097123;28;20242;-47
2021/01/16 11:02:36;;;;;;;19.20;10.40;;;;;;;;;;5095897;28;20184;-47
2021/01/16 11:05:11;;;;;;;18.23;11.05;;;;;;;;;;5096720;28;20231;-47
2021/01/16 11:07:40;;;;;;;17.95;11.57;;;;;;;;;;5096875;28;20172;-47
2021/01/16 11:10:09;;;;;;;18.98;11.05;;;;;;;;;;5096955;28;20636;-47
2021/01/16 11:12:36;;;;;;;20.38;10.35;;;;;;;;;;5096793;28;20648;-48
2021/01/16 11:15:03;;;;;;;14.80;9.85;;;;;;;;;;5096931;28;20224;-47
2021/01/16 11:17:56;;;;;;;15.13;10.10;;;;;;;;;;5096535;28;20253;-47
2021/01/16 11:20:29;;;;;;;26.45;9.80;;;;;;;;;;5094538;28;20172;-48
2021/01/16 11:23:18;;;;;;;15.65;10.00;;;;;;;;;;5092808;28;20249;-48
2021/01/16 11:25:48;;;;;;;21.33;11.52;;;;;;;;;;5073783;28;20640;-47
2021/01/16 11:28:18;;;;;;;24.30;11.30;;;;;;;;;;5093492;28;20219;-47
2021/01/16 11:30:46;;;;;;;23.13;12.05;;;;;;;;;;5093544;28;20188;-47
2021/01/16 11:33:16;;;;;;;16.92;10.88;;;;;;;;;;5089273;28;20213;-47
2021/01/16 11:35:43;;;;;;;16.30;10.63;;;;;;;;;;5093208;28;20192;-47
2021/01/16 11:38:36;;;;;;;17.65;11.23;;;;;;;;;;5093253;28;20629;-47
2021/01/16 11:41:01;;;;;;;20.00;11.40;;;;;;;;;;5091261;28;20790;-48
2021/01/16 11:43:27;;;;;;;23.23;12.43;;;;;;;;;;5093025;28;20194;-48
2021/01/16 11:46:03;;;;;;;24.25;11.13;;;;;;;;;;5093036;28;20395;-47
2021/01/16 11:48:31;;;;;;;19.60;11.98;;;;;;;;;;5092997;28;20700;-47
2021/01/16 11:50:57;;;;;;;26.15;10.98;;;;;;;;;;5093165;28;20166;-47
2021/01/16 11:53:23;;;;;;;23.20;11.90;;;;;;;;;;5093000;28;20204;-47
2021/01/16 11:55:50;;;;;;;18.50;12.02;;;;;;;;;;5092926;28;20408;-48
2021/01/16 11:58:16;;;;;;;19.08;10.85;;;;;;;;;;5093195;28;20185;-47
2021/01/16 12:00:43;;;;;;;22.40;12.90;;;;;;;;;;5079824;28;20174;-47
2021/01/16 12:03:10;;;;;;;20.02;11.98;;;;;;;;;;5073519;28;20194;-48
2021/01/16 12:05:36;;;;;;;21.27;12.00;;;;;;;;;;5072433;28;20183;-48
2021/01/16 12:08:03;;;;;;;21.80;11.57;;;;;;;;;;5072576;28;20224;-48
2021/01/16 12:10:29;;;;;;;19.80;10.32;;;;;;;;;;5072460;28;20166;-47
2021/01/16 12:12:56;;;;;;;15.93;11.32;;;;;;;;;;5072369;28;20186;-47
2021/01/16 12:15:26;;;;;;;18.20;10.93;;;;;;;;;;5072051;28;20170;-47
2021/01/16 12:17:53;;;;;;;18.48;10.73;;;;;;;;;;5072265;28;20193;-47
2021/01/16 12:20:22;;;;;;;19.58;11.23;;;;;;;;;;5072615;28;20531;-48
2021/01/16 12:22:51;;;;;;;21.35;12.02;;;;;;;;;;5072247;28;20609;-48
2021/01/16 12:25:18;;;;;;;18.73;11.40;;;;;;;;;;5072112;28;20159;-48
2021/01/16 12:27:51;;;;;;;17.27;10.75;;;;;;;;;;5072202;28;20175;-48
2021/01/16 12:30:18;;;;;;;16.02;10.00;;;;;;;;;;5072186;28;20162;-48
2021/01/16 12:32:44;;;;;;;21.85;10.63;;;;;;;;;;5083254;28;20181;-48
2021/01/16 12:35:10;;;;;;;18.10;10.88;;;;;;;;;;5092492;28;20212;-48
2021/01/16 12:37:37;;;;;;;15.63;10.88;;;;;;;;;;5092332;28;20562;-47
2021/01/16 12:40:04;;;;;;;15.25;10.15;;;;;;;;;;5073002;28;20202;-47
2021/01/16 12:42:32;;;;;;;17.13;10.60;;;;;;;;;;5072041;28;20171;-48
2021/01/16 12:45:11;;;;;;;15.98;10.60;;;;;;;;;;5071649;28;20304;-48
2021/01/16 12:47:37;;;;;;;16.10;11.25;;;;;;;;;;5071574;28;20167;-47
2021/01/16 12:50:04;;;;;;;18.63;12.15;;;;;;;;;;5071520;28;20566;-47
2021/01/16 12:52:31;;;;;;;17.13;9.98;;;;;;;;;;5070260;28;20651;-48
2021/01/16 12:55:17;;;;;;;16.98;11.15;;;;;;;;;;5070279;28;20212;-48
2021/01/16 12:57:47;;;;;;;19.10;10.27;;;;;;;;;;5071524;28;20172;-48
2021/01/16 13:00:15;;;;;;;18.10;11.18;;;;;;;;;;5071545;28;20171;-47
2021/01/16 13:02:41;;;;;;;18.42;11.63;;;;;;;;;;5090903;28;20177;-48
2021/01/16 13:05:08;;;;;;;16.02;10.98;;;;;;;;;;5091686;28;20189;-48
2021/01/16 13:07:35;;;;;;;17.33;11.15;;;;;;;;;;5091491;28;20166;-48
2021/01/16 13:10:11;;;;;;;19.13;11.73;;;;;;;;;;5091625;28;20288;-48
2021/01/16 13:12:38;;;;;;;17.70;9.95;;;;;;;;;;5091839;28;20174;-47
2021/01/16 13:15:05;;;;;;;16.83;9.75;;;;;;;;;;5091551;28;20193;-48
2021/01/16 13:17:33;;;;;;;15.05;10.48;;;;;;;;;;5091025;28;20276;-48
2021/01/16 13:19:59;;;;;;;13.60;10.20;;;;;;;;;;5091487;28;20188;-47
2021/01/16 13:22:26;;;;;;;15.70;10.90;;;;;;;;;;5091170;28;20158;-47
2021/01/16 13:25:24;;;;;;;15.05;9.50;;;;;;;;;;5091589;28;20217;-47
2021/01/16 13:27:52;;;;;;;17.42;10.20;;;;;;;;;;5046471;28;20185;-48
2021/01/16 13:30:20;;;;;;;13.95;9.77;;;;;;;;;;5091376;28;20170;-47
2021/01/16 13:32:47;;;;;;;17.63;10.55;;;;;;;;;;5087522;28;20203;-48
2021/01/16 13:35:14;;;;;;;20.60;10.68;;;;;;;;;;5089877;28;20177;-48
2021/01/16 13:37:41;;;;;;;17.17;10.30;;;;;;;;;;5090979;28;20165;-48
2021/01/16 13:40:17;;;;;;;17.42;11.07;;;;;;;;;;5091084;28;20172;-47
2021/01/16 13:42:45;;;;;;;14.05;9.90;;;;;;;;;;5091016;28;20169;-48
2021/01/16 13:45:11;;;;;;;19.58;10.18;;;;;;;;;;5084180;28;20708;-47
2021/01/16 13:47:37;;;;;;;14.68;10.10;;;;;;;;;;5067136;28;20189;-48
2021/01/16 13:50:08;;;;;;;22.92;11.95;;;;;;;;;;5066368;28;20162;-47
2021/01/16 13:52:51;;;;;;;18.75;10.88;;;;;;;;;;5070232;28;20220;-48
2021/01/16 13:55:19;;;;;;;17.88;9.93;;;;;;;;;;5069836;28;20586;-48
2021/01/16 13:57:59;;;;;;;22.02;10.85;;;;;;;;;;5068906;28;20684;-47
2021/01/16 14:00:25;;;;;;;19.33;11.02;;;;;;;;;;5072719;28;20182;-48
2021/01/16 14:02:51;;;;;;;19.20;11.20;;;;;;;;;;5090639;28;20215;-48
2021/01/16 14:05:21;;;;;;;15.63;11.40;;;;;;;;;;5072450;28;20185;-47
2021/01/16 14:07:47;;;;;;;18.83;12.27;;;;;;;;;;5069751;28;20186;-47
2021/01/16 14:10:23;;;;;;;15.07;10.35;;;;;;;;;;5070509;28;20188;-48
2021/01/16 14:13:04;;;;;;;22.70;13.02;;;;;;;;;;5070593;28;20174;-47
2021/01/16 14:15:30;;;;;;;16.83;11.80;;;;;;;;;;5069764;28;20206;-47
2021/01/16 14:17:56;;;;;;;21.70;12.10;;;;;;;;;;5070647;28;20205;-47
2021/01/16 14:20:29;;;;;;;21.73;10.57;;;;;;;;;;5070119;28;20429;-47
2021/01/16 14:22:56;;;;;;;18.52;11.70;;;;;;;;;;5070421;28;20174;-47
2021/01/16 14:25:25;;;;;;;21.35;11.70;;;;;;;;;;5070533;28;20559;-47
2021/01/16 14:27:51;;;;;;;23.80;13.63;;;;;;;;;;5070322;28;20162;-47
2021/01/16 14:30:33;;;;;;;19.40;12.38;;;;;;;;;;5070438;28;20170;-47